AirNav   Everest Fuels
 
 1546 users online  

MI20 White O'Morn Heliport
Chelsea, Michigan, USA

GOING TO CHELSEA?


FAA INFORMATION EFFECTIVE 31 DECEMBER 2020

Location

FAA Identifier: MI20
Lat/Long: 42-15-09.5000N 084-00-26.8000W
42-15.158333N 084-00.446667W
42.2526389,-84.0074444
(estimated)
Elevation: 960 ft. / 293 m (estimated)
From city: 4 miles SE of CHELSEA, MI
Time zone: UTC -5 (UTC -4 during Daylight Saving Time)
Zip code: 48118

Heliport Operations

Heliport use: Private use. Permission required prior to landing
Activation date: 05/2006
Control tower: no
ARTCC: CLEVELAND CENTER
FSS: LANSING FLIGHT SERVICE STATION
Attendance: UNATNDD
Wind indicator: lighted
Segmented circle: no
Lights: DUSK-1715

Heliport Communications

WX ASOS at ARB (12 nm E): PHONE 734-668-7173

Nearby radio navigation aids

VOR radial/distance  VOR name  Freq  Var
SVMr246/20.6SALEM VORTAC114.3003W
CRLr300/27.4CARLETON VOR/DME115.7003W
DXOr281/28.6DETROIT VOR/DME113.4006W
LFDr076/35.6LITCHFIELD VOR/DME111.2005W

 
NDB name  Hdg/Dist  Freq  Var  ID
TECUMSEH344/14.223906WTCU - -.-. ..-
ADRIAN014/23.227806WADG .- -.. --.
GROSSE ILE290/39.141907WRYS .-. -.-- ...

Heliport Services

Runway Information

Helipad H1

Dimensions: 24 x 24 ft. / 7 x 7 m
Surface: asphalt
Runway edge lights: FLD
Operational restrictions: CIRCULAR HELIPAD.
Traffic pattern: leftleft

Heliport Ownership and Management from official FAA records

Ownership: Privately-owned
Owner: ROBERT C. JACKSON
14091 SCIO CHURCH RD
CHELSEA, MI 48118
Phone 734-475-2027
Manager: ROBERT C. JACKSON
14091 SCIO CHURCH RD
CHELSEA, MI 48118
Phone 734-475-2027

Heliport Operational Statistics

Aircraft based on the field: 1
Helicopters: 1
    

Additional Remarks

FOR CD CTC DETROIT APCH AT 800-499-8181.

Instrument Procedures

There are no published instrument procedures at MI20.

Some nearby airports with instrument procedures:

KARB - Ann Arbor Municipal Airport (12 nm E)
KJXN - Jackson County Airport-Reynolds Field (20 nm W)
KYIP - Willow Run Airport (21 nm E)
KOZW - Livingston County Spencer J Hardy Airport (23 nm N)
Y47 - Oakland Southwest Airport (23 nm NE)
 
Loc | Ops | Rwys | IFR | FBO | Links
Com | Nav | Svcs | Stats | Notes
Area around MI20 (White O'Morn Heliport)
 
Road maps at: MapQuest Bing Google
 
Aerial photo
No photo
 
Sectional chart

 
Airport distance calculator
Flying to White O'Morn Heliport? Find the distance to fly.

From to MI20

Sunrise and sunset
Times for 15-Jan-2021
 Local
(UTC-5)
 Zulu
(UTC)
Morning civil twilight07:3212:32
Sunrise08:0313:03
Sunset17:2822:28
Evening civil twilight17:5922:59

Current date and time
Zulu (UTC)  15-Jan-2021 18:16:55
Local (UTC-5)  15-Jan-2021 13:16:55
 
METAR
KARB 
12nm E 
734-668-7173
151753Z 27004KT 1 1/4SM -SN BR OVC005 01/00 A2948 RMK AO2 SLP990 P0002 60030 I6000 T00060000 10028 20000 58006 $
KJXN 
20nm W 
151804Z 00000KT 1 1/2SM -SN BR FEW005 SCT018 OVC026 01/00 A2948 RMK AO2 P0000 T00060000
KYIP 
21nm E 
151753Z 23005KT 1 3/4SM -SN BKN005 OVC021 02/M01 A2949 RMK AO2 SLP989 P0005 60028 T00221006 10039 20017 58007
KOZW 
22nm N 
151755Z AUTO 22004KT 1SM -SN OVC002 01/01 A2948 RMK AO2 P0003 60021 T00050005 10033 20003
KADG 
23nm S 
151753Z AUTO 23005KT 2SM -SN BR BKN003 OVC010 01/01 A2950 RMK AO2 SLP999 P0001 60025 T00060006 10022 20000 58004
TAF
KJXN 
20nm W 
151742Z 1518/1618 VRB03KT 3SM -SN BR OVC015 TEMPO 1518/1519 3/4SM -SN BR OVC005 FM152000 22004KT 5SM HZ VCSH BKN035 FM160600 VRB03KT 1SM BR OVC004 FM161400 VRB03KT 5SM HZ BKN035
KYIP 
21nm E 
151609Z 1516/1612 15005KT 1 1/2SM -SN BR OVC006 TEMPO 1516/1518 1/2SM SN OVC005 FM152100 21004KT P6SM BKN028 OVC040 FM160400 19005KT 6SM BR OVC045 FM160700 23005KT 6SM BR OVC012
NOTAMs
Click for the latest NOTAMs
NOTAMs are issued by the DoD/FAA and will open in a separate window not controlled by AirNav.

 

 
 

Would you like to see your business listed on this page?

 If your business provides an interesting product or service to pilots, flight crews, aircraft, or users of the White O'Morn Heliport, you should consider listing it here.  To start the listing process, click on the button below
 
Add a business
 

Other Pages about White O'Morn Heliport

Update a link
 
Copyright © AirNav, LLC. All rights reserved. Privacy Policy  Contact